Flight Track Log - Related Links

Times and Time Zones

All times are in EST time to prevent confusion due to time zone crossing. See the FFT932 flight status page for this flight to view local times or setup timezone preferences in your user account.

Time Position Orientation Groundspeed Altitude Reporting Facility
EST Latitude Longitude Course Direction KTS MPH feet Rate Location/Type
Tue 07:03:30 PM 27.9833 -82.5333 360° North 151 174 600  Level Tampa TRACON
Tue 07:03:54 PM 28.0167 -82.5333 360° North 153 176 1,700 2,491 Climbing Tampa TRACON
Tue 07:06:09 PM 28.1536 -82.5394 358° North 229 264 7,200 2,554 Climbing Jacksonville Center
Tue 07:07:09 PM 28.2289 -82.5581 348° North 257 296 10,000 2,350 Climbing Jacksonville Center
Tue 07:08:09 PM 28.3144 -82.5719 352° North 285 328 11,900 1,650 Climbing Jacksonville Center
Tue 07:09:09 PM 28.4167 -82.5833 354° North 331 381 13,300 2,000 Climbing Jacksonville Center
Tue 07:10:09 PM 28.5314 -82.5831 360° North 376 433 15,900 2,650 Climbing Jacksonville Center
Tue 07:11:09 PM 28.6400 -82.5875 358° North 388 447 18,600 2,000 Climbing Jacksonville Center
Tue 07:12:09 PM 28.7361 -82.5967 355° North 388 447 19,900 950 Climbing Jacksonville Center
Tue 07:13:09 PM 28.8528 -82.6128 353° North 395 455 20,500 750 Climbing Jacksonville Center
Tue 07:14:09 PM 28.9761 -82.6314 352° North 423 487 21,400 1,050 Climbing Jacksonville Center
Tue 07:15:09 PM 29.1056 -82.6503 353° North 450 518 22,600 1,250 Climbing Jacksonville Center
Tue 07:16:09 PM 29.2392 -82.6689 353° North 467 537 23,900 1,300 Climbing Jacksonville Center
Tue 07:17:09 PM 29.3708 -82.6853 354° North 472 543 25,200 1,700 Climbing Jacksonville Center
Tue 07:18:09 PM 29.5169 -82.6944 357° North 472 543 27,300 2,050 Climbing Jacksonville Center
Tue 07:19:09 PM 29.6464 -82.6942 360° North 473 544 29,300 1,950 Climbing Jacksonville Center
Tue 07:20:09 PM 29.7675 -82.6917 North 455 524 31,200 1,500 Climbing Jacksonville Center
Tue 07:21:09 PM 29.8928 -82.6914 360° North 450 518 32,300 1,150 Climbing Jacksonville Center
Tue 07:22:09 PM 30.0178 -82.6936 359° North 450 518 33,500 850 Climbing Jacksonville Center
Tue 07:23:09 PM 30.1472 -82.6883 North 445 512 34,000 550 Climbing Jacksonville Center
Tue 07:24:09 PM 30.2853 -82.6856 North 460 529 34,600 900 Climbing Jacksonville Center
Tue 07:25:09 PM 30.4189 -82.6853 360° North 478 550 35,800 1,200 Climbing Jacksonville Center
Tue 07:26:09 PM 30.5503 -82.6828 North 478 550 37,000 600 Climbing Jacksonville Center
Tue 07:27:09 PM 30.6839 -82.6461 13° North 485 558 37,000  Level Jacksonville Center
Tue 07:28:09 PM 30.8131 -82.5831 23° Northeast 485 558 37,000 -50 Level Jacksonville Center
Tue 07:29:09 PM 30.9467 -82.5219 21° North 503 579 36,900  Descending Jacksonville Center
Tue 07:30:09 PM 31.0781 -82.4608 22° Northeast 508 585 37,000 50 Climbing Jacksonville Center
Tue 07:31:09 PM 31.2114 -82.3969 22° Northeast 513 590 37,000  Level Jacksonville Center
Tue 07:32:09 PM 31.3428 -82.3381 21° North 513 590 37,000 -50 Level Jacksonville Center
Tue 07:33:09 PM 31.4803 -82.2714 22° Northeast 513 590 36,900  Descending Jacksonville Center
Tue 07:34:09 PM 31.6136 -82.2119 21° North 513 590 37,000 50 Climbing Jacksonville Center
Tue 07:35:09 PM 31.7342 -82.1475 24° Northeast 519 597 37,000  Level Jacksonville Center
Tue 07:36:09 PM 31.8842 -82.0778 22° Northeast 519 597 37,000  Level Jacksonville Center
Tue 07:37:09 PM 32.0172 -82.0153 22° Northeast 518 596 37,000  Level Jacksonville Center
Tue 07:38:09 PM 32.1400 -81.9528 23° Northeast 519 597 37,000  Level Jacksonville Center
Tue 07:39:09 PM 32.2900 -81.8850 21° North 519 597 37,000  Level Jacksonville Center
Tue 07:40:09 PM 32.4231 -81.8194 23° Northeast 519 597 37,000  Level Jacksonville Center
Tue 07:41:09 PM 32.5433 -81.7417 29° Northeast 526 605 37,000  Level Jacksonville Center
Tue 07:42:09 PM 32.6844 -81.6386 32° Northeast 538 619 37,000  Level Jacksonville Center
Tue 07:43:09 PM 32.8003 -81.5506 33° Northeast 543 625 37,000 -50 Level Jacksonville Center
Tue 07:44:09 PM 32.9308 -81.4547 32° Northeast 543 625 36,900  Descending Jacksonville Center
Tue 07:45:09 PM 33.0633 -81.3583 31° Northeast 543 625 37,000 50 Climbing Jacksonville Center
Tue 07:46:09 PM 33.1914 -81.2617 32° Northeast 543 625 37,000  Level Jacksonville Center
Tue 07:47:09 PM 33.3194 -81.1675 32° Northeast 537 618 37,000  Level Jacksonville Center
Tue 07:48:09 PM 33.4478 -81.0728 32° Northeast 537 618 37,000  Level Jacksonville Center
Tue 07:49:09 PM 33.5756 -80.9781 32° Northeast 537 618 37,000  Level Jacksonville Center
Tue 07:50:09 PM 33.7036 -80.8828 32° Northeast 537 618 37,000  Level Jacksonville Center
Tue 07:51:09 PM 33.8292 -80.7850 33° Northeast 537 618 37,000  Level Jacksonville Center
Tue 07:52:09 PM 33.9592 -80.6892 31° Northeast 537 618 37,000  Level Jacksonville Center
Tue 07:54:06 PM 34.2131 -80.4939 32° Northeast 540 621 37,000  Level Washington Center
Tue 07:55:06 PM 34.3381 -80.3956 33° Northeast 540 621 37,000  Level Washington Center
Tue 07:56:07 PM 34.4631 -80.2997 32° Northeast 540 621 37,000  Level Washington Center
Tue 07:57:08 PM 34.5919 -80.2036 32° Northeast 540 621 37,000 50 Level Washington Center
Tue 07:58:08 PM 34.7189 -80.1022 33° Northeast 540 621 37,100  Climbing Washington Center
Tue 07:59:08 PM 34.8456 -80.0081 31° Northeast 540 621 37,000 -51 Descending Washington Center
Tue 08:00:06 PM 34.9722 -79.9083 33° Northeast 540 621 37,000  Level Washington Center
Tue 08:01:06 PM 35.0969 -79.8086 33° Northeast 540 621 37,000  Level Washington Center
Tue 08:02:06 PM 35.2211 -79.7133 32° Northeast 540 621 37,000 -50 Level Washington Center
Tue 08:03:07 PM 35.3456 -79.6153 33° Northeast 535 616 36,900  Descending Washington Center
Tue 08:04:08 PM 35.4700 -79.5144 33° Northeast 535 616 37,000 50 Climbing Washington Center
Tue 08:05:06 PM 35.5942 -79.4158 33° Northeast 535 616 37,000  Level Washington Center
Tue 08:06:06 PM 35.7206 -79.3169 32° Northeast 535 616 37,000  Level Washington Center
Tue 08:07:07 PM 35.8486 -79.2181 32° Northeast 540 621 37,000  Level Washington Center
Tue 08:08:07 PM 35.9619 -79.1256 33° Northeast 540 621 37,000  Level Washington Center
Tue 08:09:06 PM 36.0881 -79.0258 33° Northeast 540 621 37,000  Level Washington Center
Tue 08:10:06 PM 36.2142 -78.9233 33° Northeast 540 621 37,000  Level Washington Center
Tue 08:11:07 PM 36.3358 -78.8228 34° Northeast 540 621 37,000  Level Washington Center
Tue 08:12:08 PM 36.4636 -78.7194 33° Northeast 540 621 37,000  Level Washington Center
Tue 08:13:08 PM 36.5917 -78.6133 34° Northeast 540 621 37,000  Level Washington Center
Tue 08:14:06 PM 36.7225 -78.5564 19° North 501 577 37,000  Level Washington Center
Tue 08:15:07 PM 36.8572 -78.5069 16° North 501 577 37,000  Level Washington Center
Tue 08:16:07 PM 36.9897 -78.4522 18° North 501 577 37,000  Level Washington Center
Tue 08:17:07 PM 37.1094 -78.3394 37° Northeast 508 585 37,000 -198 Level Washington Center
Tue 08:18:08 PM 37.2356 -78.2006 41° Northeast 528 608 36,600 -605 Descending Washington Center
Tue 08:19:06 PM 37.3400 -78.0892 40° Northeast 533 613 35,800 -908 Descending Washington Center
Tue 08:20:07 PM 37.4575 -77.9622 41° Northeast 545 627 34,800 -984 Descending Washington Center
Tue 08:21:08 PM 37.5725 -77.8322 42° Northeast 550 633 33,800 -1,008 Descending Washington Center
Tue 08:22:06 PM 37.6939 -77.6992 41° Northeast 550 633 32,800 -1,373 Descending Washington Center
Tue 08:23:06 PM 37.8150 -77.5658 41° Northeast 566 651 31,100 -900 Descending Washington Center
Tue 08:24:06 PM 37.9442 -77.4481 36° Northeast 572 658 31,000 -50 Descending Washington Center
Tue 08:25:07 PM 38.0836 -77.3222 35° Northeast 572 658 31,000  Level Washington Center
Tue 08:26:08 PM 38.2103 -77.2064 36° Northeast 561 646 31,000  Level Washington Center
Tue 08:27:06 PM 38.3411 -77.0875 35° Northeast 566 651 31,000 -1,109 Level Washington Center
Tue 08:28:07 PM 38.4656 -76.9706 36° Northeast 566 651 28,800 -2,281 Descending Washington Center
Tue 08:29:07 PM 38.5878 -76.8586 36° Northeast 555 639 26,400 -2,281 Descending Washington Center
Tue 08:30:08 PM 38.7036 -76.7328 40° Northeast 544 626 24,200 -2,350 Descending Washington Center
Tue 08:31:07 PM 38.7489 -76.5500 72° East 509 586 21,700 -2,319 Descending Washington Center
Tue 08:32:07 PM 38.7814 -76.3800 76° East 497 572 19,600 -1,983 Descending Washington Center
Tue 08:33:08 PM 38.8117 -76.2203 76° East 484 557 17,700 -1,983 Descending Washington Center
Tue 08:34:08 PM 38.8456 -76.0742 73° East 448 516 15,600 -1,339 Descending Washington Center
Tue 08:35:09 PM 38.8733 -75.9328 76° East 417 480 15,000 -763 Descending Washington Center
Tue 08:36:06 PM 38.9214 -75.8078 64° Northeast 386 444 14,100 -712 Descending Washington Center
Tue 08:37:07 PM 39.0028 -75.7333 35° Northeast 363 418 13,600 -496 Descending Washington Center
Tue 08:38:07 PM 39.0864 -75.6744 29° Northeast 339 390 13,100 -519 Descending Washington Center
Tue 08:39:49 PM 39.2500 -75.6667 North 320 368 12,200 -370 Descending Philadelphia TRACON
Tue 08:40:49 PM 39.3167 -75.6167 30° Northeast 286 329 12,100 -150 Descending Philadelphia TRACON
Tue 08:41:49 PM 39.3833 -75.5667 30° Northeast 285 328 11,900 -850 Descending Philadelphia TRACON
Tue 08:42:49 PM 39.4667 -75.5333 17° North 270 311 10,400 -947 Descending Philadelphia TRACON
Tue 08:43:43 PM 39.5167 -75.4833 38° Northeast 274 315 10,100 -158 Descending Philadelphia TRACON
Tue 08:44:43 PM 39.5667 -75.4333 38° Northeast 268 308 10,100  Level Philadelphia TRACON
Tue 08:45:43 PM 39.6167 -75.3667 46° Northeast 266 306 10,100  Level Philadelphia TRACON
Tue 08:46:43 PM 39.6833 -75.3000 38° Northeast 269 310 10,100 -50 Level Philadelphia TRACON
Tue 08:47:43 PM 39.7500 -75.2500 30° Northeast 269 310 10,000  Descending Philadelphia TRACON
Tue 08:48:43 PM 39.8000 -75.2000 38° Northeast 263 303 10,100 -50 Climbing Philadelphia TRACON
Tue 08:49:43 PM 39.8667 -75.1500 30° Northeast 267 307 9,900 -1,200 Descending Philadelphia TRACON
Tue 08:50:43 PM 39.9333 -75.1000 30° Northeast 252 290 7,700 -2,350 Descending Philadelphia TRACON
Tue 08:51:43 PM 40.0000 -75.0667 21° North 237 273 5,200 -2,250 Descending Philadelphia TRACON
Tue 08:52:43 PM 40.0500 -75.0167 37° Northeast 239 275 3,200 -1,100 Descending Philadelphia TRACON
Tue 08:53:43 PM 40.1000 -74.9833 27° Northeast 178 205 3,000 -550 Descending Philadelphia TRACON
Tue 08:54:43 PM 40.1500 -74.9500 27° Northeast 172 198 2,100 -496 Descending Philadelphia TRACON
Tue 08:55:44 PM 40.1833 -74.9333 21° North 157 181 2,000 -150 Descending Philadelphia TRACON
Tue 08:56:43 PM 40.2167 -74.9000 37° Northeast 142 163 1,800 -403 Descending Philadelphia TRACON
Tue 08:57:43 PM 40.2333 -74.8667 57° Northeast 116 133 1,200 -645 Descending Philadelphia TRACON
Tue 08:58:44 PM 40.2667 -74.8333 37° Northeast 116 133 500 -689 Descending Philadelphia TRACON
Tue 09:00:00 PM 40.2767 -74.8135 45° Northeast  Level Estimated
Tue 09:07:00 PM 40.2767 -74.8135 45° Northeast  Level Estimated

Login

Don't have an account? Register now (free) for customized features, flight alerts, and more!